Time;durP1;ratioP1;P1;durP2;ratioP2;P2;SDS_P1;SDS_P2;PMS_P1;PMS_P2;Temp;Humidity;BMP_temperature;BMP_pressure;BME280_temperature;BME280_humidity;BME280_pressure;Samples;Min_cycle;Max_cycle;Signal;HPM_P1;HPM_P2
2022/08/09 00:01:27;;;;;;;3.90;3.50;;;24.60;56.80;;;;;;5011538;28;20487;-68
2022/08/09 00:03:53;;;;;;;4.17;3.70;;;24.60;56.90;;;;;;5011383;28;20864;-68
2022/08/09 00:06:19;;;;;;;4.20;3.63;;;24.60;57.10;;;;;;5011060;28;20950;-68
2022/08/09 00:08:47;;;;;;;3.90;3.20;;;24.60;57.00;;;;;;5011514;28;20416;-68
2022/08/09 00:11:14;;;;;;;3.85;3.40;;;24.50;57.00;;;;;;5011512;28;20396;-68
2022/08/09 00:13:40;;;;;;;3.90;3.50;;;24.50;57.00;;;;;;5011831;28;20445;-67
2022/08/09 00:16:05;;;;;;;3.50;3.20;;;24.50;57.00;;;;;;4993369;28;20777;-68
2022/08/09 00:18:32;;;;;;;3.78;3.38;;;24.50;57.00;;;;;;5011040;28;20889;-68
2022/08/09 00:20:58;;;;;;;3.55;3.20;;;24.50;57.50;;;;;;4993865;28;20393;-68
2022/08/09 00:23:24;;;;;;;3.67;3.20;;;24.50;57.00;;;;;;4993878;28;20739;-69
2022/08/09 00:25:50;;;;;;;3.70;3.33;;;24.50;57.00;;;;;;5011365;28;20879;-68
2022/08/09 00:28:15;;;;;;;3.30;3.00;;;24.50;57.00;;;;;;5011519;28;20393;-68
2022/08/09 00:30:41;;;;;;;3.90;3.60;;;24.50;57.00;;;;;;5011241;28;20802;-68
2022/08/09 00:33:06;;;;;;;3.53;3.22;;;24.50;57.10;;;;;;5011279;28;20397;-68
2022/08/09 00:35:33;;;;;;;4.90;3.35;;;24.50;57.10;;;;;;5011187;28;20754;-68
2022/08/09 00:37:59;;;;;;;3.45;3.13;;;24.50;57.30;;;;;;4993491;28;20424;-69
2022/08/09 00:40:24;;;;;;;4.43;3.63;;;24.50;57.20;;;;;;5014378;28;20392;-68
2022/08/09 00:42:50;;;;;;;3.80;3.50;;;24.50;56.90;;;;;;5014851;28;20396;-68
2022/08/09 00:45:15;;;;;;;3.57;3.27;;;24.50;57.00;;;;;;5016830;28;20388;-68
2022/08/09 00:47:41;;;;;;;5.10;3.30;;;24.50;57.10;;;;;;5013642;28;20399;-68
2022/08/09 00:50:07;;;;;;;3.63;3.20;;;24.40;57.00;;;;;;5014414;28;20395;-68
2022/08/09 00:52:33;;;;;;;3.70;3.40;;;24.50;57.30;;;;;;5014760;28;20880;-68
2022/08/09 00:54:59;;;;;;;3.70;3.20;;;24.40;57.00;;;;;;5014798;28;20389;-68
2022/08/09 00:57:25;;;;;;;3.85;3.45;;;24.50;57.10;;;;;;5014704;28;20508;-69
2022/08/09 00:59:51;;;;;;;3.40;3.10;;;24.40;57.10;;;;;;5014806;28;20475;-68
2022/08/09 01:02:23;;;;;;;3.40;3.10;;;24.40;57.00;;;;;;5014281;28;20397;-68
2022/08/09 01:05:18;;;;;;;3.47;3.17;;;24.40;57.00;;;;;;5015013;28;20432;-68
2022/08/09 01:08:13;;;;;;;3.63;3.33;;;24.40;57.10;;;;;;4997520;28;20389;-68
2022/08/09 01:10:50;;;;;;;4.00;3.60;;;24.40;57.00;;;;;;5014767;28;20450;-68
2022/08/09 01:13:18;;;;;;;3.83;3.50;;;24.40;57.10;;;;;;5014530;28;20381;-68
2022/08/09 01:15:47;;;;;;;3.60;3.30;;;24.40;57.10;;;;;;5014549;28;20411;-68
2022/08/09 01:18:19;;;;;;;3.80;3.40;;;24.40;57.10;;;;;;5013902;28;20405;-68
2022/08/09 01:20:57;;;;;;;3.30;3.00;;;24.40;57.10;;;;;;5014365;28;20562;-68
2022/08/09 01:23:52;;;;;;;3.40;3.10;;;24.40;57.10;;;;;;5014344;28;20401;-68
2022/08/09 01:26:51;;;;;;;3.15;2.85;;;24.40;57.00;;;;;;5003226;28;20425;-68
2022/08/09 01:29:21;;;;;;;3.60;3.30;;;24.40;57.10;;;;;;5014208;28;20439;-68
2022/08/09 01:31:48;;;;;;;3.30;3.00;;;24.40;57.10;;;;;;5014037;28;20396;-68
2022/08/09 01:34:18;;;;;;;3.40;3.10;;;24.40;57.10;;;;;;5013680;28;20401;-68
2022/08/09 01:36:45;;;;;;;3.40;3.10;;;24.40;57.00;;;;;;5013757;28;20880;-68
2022/08/09 01:39:12;;;;;;;3.50;3.20;;;24.40;57.00;;;;;;5014059;28;20892;-68
2022/08/09 01:41:40;;;;;;;3.42;3.10;;;24.40;57.00;;;;;;5013935;28;20463;-68
2022/08/09 01:44:08;;;;;;;3.40;3.10;;;24.40;57.00;;;;;;4996192;28;20904;-68
2022/08/09 01:46:41;;;;;;;3.63;3.33;;;24.30;56.90;;;;;;5012458;28;20470;-68
2022/08/09 01:49:17;;;;;;;3.72;3.42;;;24.40;57.00;;;;;;4996249;28;20404;-68
2022/08/09 01:51:56;;;;;;;4.05;3.65;;;24.30;56.90;;;;;;5014743;28;20401;-68
2022/08/09 01:54:28;;;;;;;3.60;3.30;;;24.30;57.00;;;;;;5013736;28;20396;-68
2022/08/09 01:56:55;;;;;;;3.40;3.10;;;24.30;56.90;;;;;;5013791;28;20421;-68
2022/08/09 01:59:22;;;;;;;3.97;3.58;;;24.30;56.90;;;;;;5013704;28;20385;-68
2022/08/09 02:01:51;;;;;;;3.45;3.15;;;24.30;57.10;;;;;;5013616;28;20397;-68
2022/08/09 02:04:19;;;;;;;3.92;3.63;;;24.30;57.00;;;;;;5013082;28;20385;-68
2022/08/09 02:09:33;;;;;;;3.45;3.15;;;24.30;57.00;;;;;;5013827;28;20451;-68
2022/08/09 02:12:00;;;;;;;3.60;3.30;;;24.30;56.90;;;;;;5013792;28;20500;-68
2022/08/09 02:14:28;;;;;;;3.65;3.35;;;24.30;57.00;;;;;;5012859;28;20395;-68
2022/08/09 02:16:55;;;;;;;3.45;3.15;;;24.30;56.90;;;;;;5013444;28;20512;-68
2022/08/09 02:19:21;;;;;;;3.67;3.38;;;24.30;56.90;;;;;;5013295;28;20393;-68
2022/08/09 02:21:50;;;;;;;3.22;2.92;;;24.30;57.00;;;;;;5014358;28;20393;-68
2022/08/09 02:24:22;;;;;;;3.40;3.10;;;24.30;57.00;;;;;;5012785;28;20424;-68
2022/08/09 02:26:51;;;;;;;3.20;2.90;;;24.30;57.00;;;;;;5014134;28;20439;-68
2022/08/09 02:29:25;;;;;;;3.60;3.30;;;24.30;57.00;;;;;;5013193;28;20424;-68
2022/08/09 02:31:58;;;;;;;3.25;2.95;;;24.30;57.00;;;;;;5012972;28;20448;-68
2022/08/09 02:34:27;;;;;;;3.40;3.10;;;24.30;56.90;;;;;;5011545;28;20412;-68
2022/08/09 02:36:56;;;;;;;3.20;2.70;;;24.30;57.00;;;;;;4995189;28;20437;-68
2022/08/09 02:39:38;;;;;;;3.50;3.20;;;24.30;56.80;;;;;;5011706;28;20443;-68
2022/08/09 02:42:11;;;;;;;3.07;2.87;;;24.30;56.80;;;;;;5012940;28;20470;-68
2022/08/09 02:44:41;;;;;;;3.45;3.15;;;24.30;56.80;;;;;;5011546;28;20401;-68
2022/08/09 02:47:11;;;;;;;3.13;2.92;;;24.20;56.70;;;;;;5012746;28;20396;-68
2022/08/09 02:49:50;;;;;;;3.65;3.05;;;24.20;56.80;;;;;;5012686;28;20396;-68
2022/08/09 02:52:18;;;;;;;3.53;3.22;;;24.20;56.70;;;;;;5012178;28;20454;-68
2022/08/09 02:54:45;;;;;;;3.13;2.80;;;24.20;56.60;;;;;;5012434;28;20389;-68
2022/08/09 02:57:12;;;;;;;3.20;2.90;;;24.20;56.70;;;;;;5012449;28;20425;-68
2022/08/09 02:59:40;;;;;;;3.60;3.30;;;24.20;56.70;;;;;;5012387;28;20389;-68
2022/08/09 03:02:14;;;;;;;3.40;3.10;;;24.20;56.60;;;;;;5011888;28;20392;-68
2022/08/09 03:04:41;;;;;;;3.58;3.13;;;24.20;56.60;;;;;;5012463;28;20903;-68
2022/08/09 03:07:08;;;;;;;3.75;3.45;;;24.20;56.70;;;;;;5012419;28;20392;-68
2022/08/09 03:09:35;;;;;;;7.80;2.92;;;24.20;56.70;;;;;;5012320;28;20400;-67
2022/08/09 03:12:02;;;;;;;4.90;3.03;;;24.30;57.90;;;;;;5012447;28;20416;-69
2022/08/09 03:14:30;;;;;;;4.80;3.27;;;24.30;58.30;;;;;;5011960;28;20396;-68
2022/08/09 03:17:01;;;;;;;5.70;3.40;;;24.30;58.20;;;;;;5012511;28;20970;-68
2022/08/09 03:19:29;;;;;;;6.18;3.50;;;24.30;58.20;;;;;;5012293;28;20399;-68
2022/08/09 03:21:56;;;;;;;7.18;3.60;;;24.30;59.60;;;;;;5012132;28;20428;-68
2022/08/09 03:24:22;;;;;;;7.40;3.80;;;24.40;59.80;;;;;;5011771;28;20480;-69
2022/08/09 03:26:49;;;;;;;7.25;3.67;;;24.40;60.00;;;;;;5013149;28;20436;-68
2022/08/09 03:29:15;;;;;;;5.18;3.53;;;24.50;60.10;;;;;;5011934;28;20408;-68
2022/08/09 03:31:42;;;;;;;4.10;3.15;;;24.50;59.80;;;;;;5011719;28;20496;-69
2022/08/09 03:34:09;;;;;;;8.00;3.70;;;24.50;59.80;;;;;;5011734;28;20442;-68
2022/08/09 03:36:35;;;;;;;4.72;3.30;;;24.50;59.90;;;;;;4990587;28;20426;-68
2022/08/09 03:39:02;;;;;;;9.18;3.50;;;24.50;59.80;;;;;;4992288;28;20405;-68
2022/08/09 03:41:28;;;;;;;4.65;3.42;;;24.60;59.80;;;;;;5007393;28;20505;-68
2022/08/09 03:43:54;;;;;;;4.65;3.20;;;24.60;60.00;;;;;;4992093;28;20445;-69
2022/08/09 03:46:20;;;;;;;8.17;3.33;;;24.50;59.50;;;;;;4991695;28;20910;-68
2022/08/09 03:48:55;;;;;;;5.72;3.38;;;24.50;59.60;;;;;;4992101;28;20387;-68
2022/08/09 03:51:23;;;;;;;4.60;3.38;;;24.60;59.60;;;;;;4992132;28;20437;-68
2022/08/09 03:53:49;;;;;;;5.20;3.28;;;24.60;59.70;;;;;;4992049;28;20390;-68
2022/08/09 03:56:15;;;;;;;4.80;3.22;;;24.60;59.30;;;;;;5005653;28;20415;-68
2022/08/09 03:58:40;;;;;;;4.28;3.30;;;24.60;59.10;;;;;;4990057;28;20409;-68
2022/08/09 04:01:06;;;;;;;3.97;3.37;;;24.50;58.70;;;;;;4992051;28;20382;-68
2022/08/09 04:03:33;;;;;;;5.45;3.30;;;24.50;58.50;;;;;;4992013;28;20386;-69
2022/08/09 04:05:59;;;;;;;5.47;2.90;;;24.50;59.00;;;;;;5006923;28;20747;-69
2022/08/09 04:08:24;;;;;;;5.43;2.97;;;24.40;58.90;;;;;;4991426;28;20387;-68
2022/08/09 04:10:50;;;;;;;9.30;3.57;;;24.40;58.20;;;;;;4991894;28;20488;-69
2022/08/09 04:13:16;;;;;;;7.90;3.60;;;24.40;58.30;;;;;;4992017;28;20533;-69
2022/08/09 04:15:43;;;;;;;8.47;3.97;;;24.40;58.10;;;;;;4995853;28;20818;-69
2022/08/09 04:18:09;;;;;;;8.93;3.53;;;24.40;57.50;;;;;;4995682;28;20485;-72
2022/08/09 04:20:35;;;;;;;8.27;3.60;;;24.30;57.10;;;;;;4995037;28;20386;-68
2022/08/09 04:23:01;;;;;;;6.47;3.70;;;24.30;56.40;;;;;;4994377;28;20410;-68
2022/08/09 04:25:27;;;;;;;4.93;3.50;;;24.30;54.90;;;;;;4995817;28;20453;-68
2022/08/09 04:27:52;;;;;;;4.57;3.33;;;24.20;54.10;;;;;;4995557;28;20451;-68
2022/08/09 04:30:21;;;;;;;5.25;3.45;;;24.20;54.40;;;;;;4995509;28;20394;-68
2022/08/09 04:32:47;;;;;;;6.70;3.40;;;24.20;54.10;;;;;;4995369;28;20886;-68
2022/08/09 04:35:13;;;;;;;4.57;3.10;;;24.20;54.10;;;;;;4995632;28;20497;-69
2022/08/09 04:37:39;;;;;;;4.65;3.05;;;24.20;54.50;;;;;;5009501;28;20846;-68
2022/08/09 04:40:06;;;;;;;5.10;3.30;;;24.20;54.50;;;;;;5009274;28;20819;-68
2022/08/09 04:42:32;;;;;;;5.33;3.00;;;24.20;54.30;;;;;;4993657;28;20481;-68
2022/08/09 04:44:59;;;;;;;4.20;3.22;;;24.20;54.40;;;;;;5008974;28;20497;-68
2022/08/09 04:47:26;;;;;;;3.83;3.25;;;24.20;54.50;;;;;;5009057;28;20394;-68
2022/08/09 04:49:52;;;;;;;3.40;3.10;;;24.20;54.60;;;;;;4992777;28;20744;-68
2022/08/09 04:52:18;;;;;;;5.57;3.05;;;24.10;54.50;;;;;;4993820;28;20390;-69
2022/08/09 04:54:43;;;;;;;3.55;3.22;;;24.20;54.60;;;;;;4993767;28;20457;-68
2022/08/09 04:57:10;;;;;;;5.00;3.07;;;24.10;54.80;;;;;;4993965;28;20426;-68
2022/08/09 04:59:36;;;;;;;4.20;2.87;;;24.10;54.70;;;;;;4993676;28;20392;-68
2022/08/09 05:02:01;;;;;;;3.95;3.00;;;24.10;54.80;;;;;;4992685;28;20394;-68
2022/08/09 05:04:27;;;;;;;3.30;2.95;;;24.10;55.10;;;;;;4993468;28;20398;-68
2022/08/09 05:06:53;;;;;;;3.20;2.90;;;24.10;55.00;;;;;;4993912;28;20395;-68
2022/08/09 05:09:18;;;;;;;3.37;2.80;;;24.10;55.00;;;;;;4993819;28;20449;-68
2022/08/09 05:11:44;;;;;;;3.10;2.80;;;24.10;55.00;;;;;;4993835;28;20402;-68
2022/08/09 05:14:09;;;;;;;3.10;2.80;;;24.10;55.00;;;;;;4993758;28;20775;-68
2022/08/09 05:16:35;;;;;;;3.60;2.90;;;24.10;55.10;;;;;;4992839;28;20410;-68
2022/08/09 05:19:01;;;;;;;3.40;2.78;;;24.10;55.10;;;;;;4993711;28;20395;-68
2022/08/09 05:21:27;;;;;;;3.25;2.88;;;24.10;55.10;;;;;;4993705;28;20389;-68
2022/08/09 05:23:53;;;;;;;2.90;2.60;;;24.10;55.10;;;;;;4993673;28;20405;-68
2022/08/09 05:26:19;;;;;;;3.50;3.20;;;24.10;55.10;;;;;;4993001;28;20452;-68
2022/08/09 05:28:45;;;;;;;3.10;2.80;;;24.10;55.20;;;;;;4993215;28;20445;-68
2022/08/09 05:31:11;;;;;;;3.30;2.92;;;24.10;55.10;;;;;;4993596;28;20390;-68
2022/08/09 05:33:37;;;;;;;3.08;2.60;;;24.10;55.20;;;;;;4993482;28;20901;-68
2022/08/09 05:36:03;;;;;;;3.40;2.77;;;24.10;55.30;;;;;;4929515;28;1823762;-68
2022/08/09 05:38:30;;;;;;;3.05;2.75;;;24.10;55.20;;;;;;5013694;28;20401;-68
2022/08/09 05:40:56;;;;;;;3.80;2.80;;;24.10;55.20;;;;;;5014037;28;20439;-68
2022/08/09 05:43:21;;;;;;;3.10;2.80;;;24.10;55.20;;;;;;5014007;28;20785;-68
2022/08/09 05:45:47;;;;;;;3.30;3.00;;;24.10;55.10;;;;;;5012712;28;20397;-68
2022/08/09 05:48:12;;;;;;;3.10;2.80;;;24.10;55.10;;;;;;5012650;28;20491;-68
2022/08/09 05:50:40;;;;;;;3.03;2.70;;;24.10;55.30;;;;;;5013283;28;20392;-68
2022/08/09 05:53:06;;;;;;;3.42;3.10;;;24.10;55.20;;;;;;5013800;28;20393;-68
2022/08/09 05:55:32;;;;;;;3.10;2.80;;;24.00;55.20;;;;;;5012422;28;20793;-68
2022/08/09 05:57:57;;;;;;;3.00;2.70;;;24.00;55.20;;;;;;5013640;28;20397;-68
2022/08/09 06:00:25;;;;;;;2.92;2.60;;;24.00;55.20;;;;;;5013189;28;20451;-68
2022/08/09 06:02:51;;;;;;;3.22;2.80;;;24.00;55.40;;;;;;5013520;28;20447;-68
2022/08/09 06:05:16;;;;;;;3.10;2.80;;;24.00;55.30;;;;;;5013595;28;20388;-68
2022/08/09 06:07:42;;;;;;;3.00;2.70;;;24.00;55.20;;;;;;5013479;28;20423;-68
2022/08/09 06:10:08;;;;;;;3.50;2.80;;;24.10;55.30;;;;;;5013529;28;20954;-68
2022/08/09 06:12:34;;;;;;;3.00;2.75;;;24.10;55.30;;;;;;5012979;28;20438;-68
2022/08/09 06:14:59;;;;;;;2.95;2.70;;;24.00;55.30;;;;;;5013420;28;20398;-68
2022/08/09 06:17:25;;;;;;;3.35;3.05;;;24.10;55.30;;;;;;5013272;28;20467;-68
2022/08/09 06:19:51;;;;;;;3.15;2.85;;;24.00;55.30;;;;;;5013296;28;20450;-68
2022/08/09 06:22:16;;;;;;;2.95;2.75;;;24.00;55.70;;;;;;5013298;28;20381;-68
2022/08/09 06:24:42;;;;;;;3.03;2.73;;;24.00;55.50;;;;;;5012709;28;20392;-68
2022/08/09 06:27:08;;;;;;;3.13;2.78;;;24.10;55.70;;;;;;5013214;28;20385;-68
2022/08/09 06:29:33;;;;;;;3.30;3.00;;;24.10;55.60;;;;;;5011817;28;20400;-68
2022/08/09 06:31:59;;;;;;;3.07;2.80;;;24.10;55.60;;;;;;5013183;28;20389;-68
2022/08/09 06:34:24;;;;;;;2.90;2.60;;;24.10;55.70;;;;;;5012829;28;20413;-68
2022/08/09 06:36:50;;;;;;;2.90;2.70;;;24.10;55.60;;;;;;5011956;28;20536;-68
2022/08/09 06:39:16;;;;;;;3.30;3.00;;;24.20;55.70;;;;;;5013024;28;20749;-68
2022/08/09 06:41:42;;;;;;;3.33;3.03;;;24.20;55.60;;;;;;5012841;28;20392;-68
2022/08/09 06:44:09;;;;;;;3.10;2.80;;;24.20;55.50;;;;;;5012932;28;20450;-68
2022/08/09 06:46:36;;;;;;;3.10;2.83;;;24.20;55.30;;;;;;5012299;28;20472;-68
2022/08/09 06:49:02;;;;;;;2.92;2.72;;;24.20;55.30;;;;;;5012798;28;20415;-68
2022/08/09 06:51:28;;;;;;;3.22;2.67;;;24.20;55.00;;;;;;5012721;28;20869;-68
2022/08/09 06:53:54;;;;;;;3.13;2.65;;;24.30;55.10;;;;;;5012672;28;20392;-68
2022/08/09 06:56:20;;;;;;;3.20;2.80;;;24.30;55.10;;;;;;4994878;28;20482;-68
2022/08/09 06:58:45;;;;;;;3.20;2.90;;;24.30;55.20;;;;;;5011242;28;20963;-68
2022/08/09 07:01:11;;;;;;;2.95;2.75;;;24.30;55.20;;;;;;5012560;28;20484;-68
2022/08/09 07:03:37;;;;;;;3.20;2.70;;;24.20;55.00;;;;;;5012527;28;20865;-68
2022/08/09 07:06:03;;;;;;;2.75;2.55;;;24.30;55.00;;;;;;5012565;28;20404;-68
2022/08/09 07:08:29;;;;;;;3.00;2.70;;;24.20;55.20;;;;;;5011998;28;20397;-68
2022/08/09 07:10:55;;;;;;;2.72;2.53;;;24.30;55.50;;;;;;5012464;28;20400;-68
2022/08/09 07:13:20;;;;;;;3.00;2.80;;;24.20;55.20;;;;;;5012350;28;20392;-68
2022/08/09 07:15:46;;;;;;;2.97;2.73;;;24.20;55.10;;;;;;5012141;28;20388;-68
2022/08/09 07:18:11;;;;;;;3.10;2.80;;;24.20;55.40;;;;;;5012042;28;20432;-68
2022/08/09 07:20:37;;;;;;;3.10;2.80;;;24.20;55.40;;;;;;5011625;28;20389;-68
2022/08/09 07:23:03;;;;;;;2.80;2.60;;;24.20;55.50;;;;;;5012250;28;20400;-68
2022/08/09 07:25:28;;;;;;;2.85;2.65;;;24.20;55.30;;;;;;5012151;28;20389;-68
2022/08/09 07:27:54;;;;;;;2.75;2.55;;;24.20;55.20;;;;;;5012070;28;20389;-68
2022/08/09 07:30:20;;;;;;;2.80;2.58;;;24.20;55.20;;;;;;5011682;28;20876;-70
2022/08/09 07:32:46;;;;;;;3.00;2.72;;;24.20;55.20;;;;;;5011113;28;20393;-68
2022/08/09 07:35:12;;;;;;;2.95;2.65;;;24.20;55.30;;;;;;5011908;28;20429;-68
2022/08/09 07:37:40;;;;;;;2.90;2.63;;;24.20;55.10;;;;;;5010349;28;20447;-68
2022/08/09 07:40:06;;;;;;;2.88;2.60;;;24.20;55.50;;;;;;5012006;28;20476;-68
2022/08/09 07:42:31;;;;;;;2.55;2.35;;;24.20;56.10;;;;;;5011459;28;20488;-68
2022/08/09 07:44:57;;;;;;;2.70;2.50;;;24.20;55.10;;;;;;5011844;28;20472;-68
2022/08/09 07:47:23;;;;;;;3.00;2.53;;;24.20;55.70;;;;;;5011798;28;20784;-68
2022/08/09 07:49:48;;;;;;;2.90;2.70;;;24.20;56.20;;;;;;5011806;28;20454;-68
2022/08/09 07:52:14;;;;;;;3.00;2.80;;;24.30;56.00;;;;;;5011882;28;20397;-68
2022/08/09 07:54:40;;;;;;;3.10;2.90;;;24.30;56.00;;;;;;5011328;28;20400;-68
2022/08/09 07:57:05;;;;;;;3.00;2.80;;;24.30;55.50;;;;;;5011654;28;20429;-68
2022/08/09 07:59:31;;;;;;;2.80;2.60;;;24.30;55.60;;;;;;5011540;28;20404;-68
2022/08/09 08:01:56;;;;;;;2.80;2.60;;;24.30;56.00;;;;;;5011591;28;20392;-68
2022/08/09 08:04:22;;;;;;;3.13;2.80;;;24.30;56.10;;;;;;5011757;28;20404;-68
2022/08/09 08:06:48;;;;;;;3.03;2.72;;;24.30;56.00;;;;;;4993534;28;20404;-68
2022/08/09 08:09:14;;;;;;;2.70;2.50;;;24.30;56.20;;;;;;5011820;28;20463;-68
2022/08/09 08:11:39;;;;;;;2.80;2.60;;;24.30;56.30;;;;;;5011592;28;20476;-68
2022/08/09 08:14:05;;;;;;;2.87;2.67;;;24.30;56.00;;;;;;5011627;28;20888;-68
2022/08/09 08:16:31;;;;;;;2.90;2.70;;;24.30;56.30;;;;;;5011182;28;20407;-68
2022/08/09 08:18:57;;;;;;;2.90;2.70;;;24.30;56.30;;;;;;5011561;28;20396;-68
2022/08/09 08:21:23;;;;;;;2.90;2.70;;;24.30;56.80;;;;;;5011496;28;20397;-68
2022/08/09 08:23:50;;;;;;;2.80;2.60;;;24.30;56.30;;;;;;4993898;28;20819;-68
2022/08/09 08:26:15;;;;;;;2.70;2.50;;;24.30;56.40;;;;;;5011627;28;20384;-68
2022/08/09 08:28:41;;;;;;;2.80;2.60;;;24.30;56.40;;;;;;5010948;28;20472;-68
2022/08/09 08:31:07;;;;;;;3.30;2.63;;;24.30;56.40;;;;;;5011485;28;20895;-68
2022/08/09 08:33:32;;;;;;;2.70;2.50;;;24.30;56.50;;;;;;5011448;28;20467;-68
2022/08/09 08:35:58;;;;;;;2.70;2.50;;;24.30;56.40;;;;;;5011195;28;20868;-68
2022/08/09 08:38:24;;;;;;;2.70;2.50;;;24.30;56.40;;;;;;5011429;28;20757;-68
2022/08/09 08:40:51;;;;;;;2.72;2.50;;;24.30;56.50;;;;;;5010866;28;20428;-68
2022/08/09 08:43:17;;;;;;;2.60;2.40;;;24.30;56.40;;;;;;5011401;28;20479;-68
2022/08/09 08:45:56;;;;;;;2.78;2.58;;;24.30;56.40;;;;;;5010806;28;20473;-68
2022/08/09 08:48:23;;;;;;;2.50;2.30;;;24.30;56.40;;;;;;5009723;28;20409;-68
2022/08/09 08:50:48;;;;;;;2.83;2.63;;;24.30;56.50;;;;;;5009434;28;20389;-68
2022/08/09 08:53:14;;;;;;;2.60;2.40;;;24.30;56.50;;;;;;5011106;28;20412;-68
2022/08/09 08:55:42;;;;;;;2.88;2.67;;;24.30;56.40;;;;;;5010911;28;20400;-68
2022/08/09 08:58:09;;;;;;;2.60;2.40;;;24.40;56.60;;;;;;5011224;28;20428;-68
2022/08/09 09:00:35;;;;;;;2.88;2.67;;;24.40;56.50;;;;;;5012677;28;20496;-68
2022/08/09 09:03:03;;;;;;;3.05;2.40;;;24.40;56.40;;;;;;5014793;28;20450;-68
2022/08/09 09:05:30;;;;;;;2.87;2.50;;;24.40;56.50;;;;;;5014821;28;20792;-68
2022/08/09 09:07:57;;;;;;;2.70;2.50;;;24.40;56.50;;;;;;5014649;28;20397;-68
2022/08/09 09:10:27;;;;;;;2.67;2.47;;;24.40;56.50;;;;;;5014683;28;20428;-69
2022/08/09 09:12:54;;;;;;;2.60;2.40;;;24.40;56.40;;;;;;5014398;28;20485;-68
2022/08/09 09:15:20;;;;;;;2.65;2.45;;;24.40;56.50;;;;;;5014532;28;20392;-68
2022/08/09 09:17:46;;;;;;;3.03;2.78;;;24.40;56.50;;;;;;5014409;28;20567;-68
2022/08/09 09:20:13;;;;;;;2.80;2.60;;;24.40;56.40;;;;;;5014453;28;20385;-68
2022/08/09 09:22:57;;;;;;;2.90;2.70;;;24.40;56.50;;;;;;5013886;28;20480;-68
2022/08/09 09:25:40;;;;;;;2.70;2.50;;;24.40;56.50;;;;;;5014443;28;20870;-68
2022/08/09 09:28:08;;;;;;;2.90;2.60;;;24.40;56.40;;;;;;4996820;28;20409;-68
2022/08/09 09:30:50;;;;;;;2.80;2.60;;;24.40;56.40;;;;;;5014002;28;20416;-68
2022/08/09 09:33:15;;;;;;;2.80;2.60;;;24.40;56.50;;;;;;5014285;28;20432;-68
2022/08/09 09:35:59;;;;;;;2.75;2.55;;;24.50;56.40;;;;;;5014058;28;20417;-68
2022/08/09 09:38:43;;;;;;;2.90;2.70;;;24.40;56.30;;;;;;5014283;28;20428;-68
2022/08/09 09:41:10;;;;;;;3.00;2.70;;;24.40;56.30;;;;;;5014062;28;20381;-69
2022/08/09 09:43:36;;;;;;;3.10;2.80;;;24.50;56.30;;;;;;5013956;28;20388;-68
2022/08/09 09:46:01;;;;;;;3.10;2.50;;;24.40;56.20;;;;;;5012706;28;20531;-68
2022/08/09 09:48:28;;;;;;;2.87;2.63;;;24.40;56.20;;;;;;5013999;28;20543;-68
2022/08/09 09:50:54;;;;;;;2.80;2.60;;;24.50;56.20;;;;;;5013332;28;20939;-68
2022/08/09 09:53:24;;;;;;;3.00;2.70;;;24.40;56.10;;;;;;4996232;28;20769;-68
2022/08/09 09:56:00;;;;;;;3.00;2.80;;;24.50;56.10;;;;;;5013674;28;20393;-68
2022/08/09 09:58:44;;;;;;;2.70;2.50;;;24.50;56.10;;;;;;5009112;28;20408;-68
2022/08/09 10:01:21;;;;;;;2.88;2.67;;;24.50;56.10;;;;;;5012867;28;20873;-68
2022/08/09 10:03:52;;;;;;;2.88;2.67;;;24.50;56.10;;;;;;4995719;28;20409;-68
2022/08/09 10:06:18;;;;;;;3.30;3.00;;;24.50;56.10;;;;;;4995854;28;20428;-68
2022/08/09 10:08:46;;;;;;;2.90;2.60;;;24.50;56.00;;;;;;5011691;28;20881;-68
2022/08/09 10:11:24;;;;;;;3.10;2.72;;;24.50;56.00;;;;;;5012454;28;20459;-68
2022/08/09 10:13:50;;;;;;;2.70;2.50;;;24.50;56.00;;;;;;5013391;28;20389;-68
2022/08/09 10:16:27;;;;;;;2.70;2.50;;;24.50;56.00;;;;;;5013310;28;20769;-68
2022/08/09 10:18:54;;;;;;;2.70;2.50;;;24.60;56.10;;;;;;5013010;28;20424;-68
2022/08/09 10:21:21;;;;;;;2.88;2.67;;;24.60;56.00;;;;;;5013326;28;20384;-68
2022/08/09 10:23:47;;;;;;;2.80;2.60;;;24.60;56.10;;;;;;5013291;28;20801;-68
2022/08/09 10:26:13;;;;;;;2.85;2.65;;;24.50;56.00;;;;;;5012057;28;20443;-68
2022/08/09 10:28:42;;;;;;;3.17;2.88;;;24.60;56.00;;;;;;5012633;28;20447;-69
2022/08/09 10:31:13;;;;;;;2.80;2.60;;;24.60;56.10;;;;;;5013159;28;20458;-68
2022/08/09 10:33:39;;;;;;;2.80;2.60;;;24.60;56.00;;;;;;5013145;28;20399;-69
2022/08/09 10:36:07;;;;;;;2.88;2.63;;;24.60;56.00;;;;;;5012849;28;20412;-68
2022/08/09 10:38:34;;;;;;;2.80;2.50;;;24.60;56.00;;;;;;5012848;28;20398;-68
2022/08/09 10:41:00;;;;;;;2.72;2.50;;;24.60;55.90;;;;;;5012688;28;20446;-69
2022/08/09 10:43:27;;;;;;;2.95;2.50;;;24.60;55.90;;;;;;5012880;28;20396;-69
2022/08/09 10:45:53;;;;;;;2.72;2.53;;;24.60;56.00;;;;;;5012874;28;20385;-69
2022/08/09 10:48:33;;;;;;;3.05;2.75;;;24.60;56.00;;;;;;4995303;28;20463;-68
2022/08/09 10:51:16;;;;;;;2.80;2.60;;;24.60;56.10;;;;;;5012656;28;20392;-68
2022/08/09 10:54:04;;;;;;;2.78;2.50;;;24.60;55.90;;;;;;5012655;28;20404;-68
2022/08/09 10:56:36;;;;;;;2.70;2.50;;;24.60;56.00;;;;;;5012696;28;20420;-71
2022/08/09 10:59:23;;;;;;;2.67;2.47;;;24.60;55.90;;;;;;5012409;28;20381;-68
2022/08/09 11:01:50;;;;;;;2.60;2.40;;;24.60;55.80;;;;;;5018769;28;20612;-68
2022/08/09 11:04:21;;;;;;;2.97;2.78;;;24.60;55.80;;;;;;5031199;28;20392;-68
2022/08/09 11:07:07;;;;;;;2.70;2.50;;;24.60;55.80;;;;;;5031854;28;20395;-68
2022/08/09 11:09:41;;;;;;;3.13;2.83;;;24.60;55.80;;;;;;5014967;28;20398;-68
2022/08/09 11:12:13;;;;;;;2.97;2.72;;;24.70;55.90;;;;;;5024694;28;20527;-68
2022/08/09 11:14:41;;;;;;;2.92;2.72;;;24.70;55.80;;;;;;5007644;28;20408;-68
2022/08/09 11:17:12;;;;;;;3.10;2.80;;;24.70;55.90;;;;;;5011545;28;20773;-68
2022/08/09 11:19:53;;;;;;;2.90;2.60;;;24.70;55.80;;;;;;5011848;28;20412;-68
2022/08/09 11:22:19;;;;;;;2.97;2.70;;;24.70;55.70;;;;;;5011640;28;20435;-68
2022/08/09 11:25:06;;;;;;;2.88;2.63;;;24.70;55.70;;;;;;5011455;28;20400;-68
2022/08/09 11:27:38;;;;;;;3.00;2.70;;;24.70;55.70;;;;;;4994371;28;20452;-67
2022/08/09 11:30:14;;;;;;;2.65;2.42;;;24.80;55.60;;;;;;5011954;28;20939;-68
2022/08/09 11:32:50;;;;;;;2.78;2.58;;;24.80;55.60;;;;;;5011627;28;20391;-68
2022/08/09 11:35:24;;;;;;;2.95;2.65;;;24.80;55.70;;;;;;5012020;28;20873;-67
2022/08/09 11:37:51;;;;;;;3.17;2.92;;;24.70;55.50;;;;;;5011607;28;20500;-68
2022/08/09 11:40:28;;;;;;;3.00;2.80;;;24.80;55.70;;;;;;5010649;28;20403;-68
2022/08/09 11:42:56;;;;;;;3.10;2.80;;;24.80;55.50;;;;;;5011241;28;20393;-68
2022/08/09 11:45:28;;;;;;;2.97;2.67;;;24.80;55.40;;;;;;5011510;28;20476;-68
2022/08/09 11:47:59;;;;;;;2.70;2.50;;;24.80;55.40;;;;;;5011579;28;20393;-68
2022/08/09 11:50:26;;;;;;;2.70;2.50;;;24.80;55.40;;;;;;4994184;28;20479;-68
2022/08/09 11:53:12;;;;;;;2.70;2.50;;;24.80;55.30;;;;;;5011098;28;20885;-67
2022/08/09 11:55:40;;;;;;;3.08;2.78;;;24.80;55.30;;;;;;5004231;28;20766;-68
2022/08/09 11:58:15;;;;;;;3.03;2.83;;;24.90;55.30;;;;;;5011558;28;20954;-68
2022/08/09 12:00:48;;;;;;;2.75;2.55;;;24.80;55.30;;;;;;5011832;28;20490;-68
2022/08/09 12:03:15;;;;;;;2.63;2.42;;;24.90;55.30;;;;;;5005678;28;20405;-68
2022/08/09 12:05:42;;;;;;;2.88;2.67;;;24.90;55.30;;;;;;5027474;28;20849;-68
2022/08/09 12:08:09;;;;;;;2.80;2.55;;;24.90;55.30;;;;;;5014304;28;20409;-68
2022/08/09 12:10:41;;;;;;;2.35;2.15;;;24.90;55.30;;;;;;5011405;28;20388;-68
2022/08/09 12:13:06;;;;;;;2.67;2.47;;;24.90;55.30;;;;;;4993007;28;20403;-68
2022/08/09 12:15:32;;;;;;;2.50;2.30;;;24.90;55.30;;;;;;5011344;28;20471;-68
2022/08/09 12:17:58;;;;;;;2.78;2.40;;;24.90;55.30;;;;;;4993858;28;20449;-68
2022/08/09 12:20:25;;;;;;;2.70;2.50;;;24.90;55.40;;;;;;5011313;28;20393;-68
2022/08/09 12:22:59;;;;;;;2.75;2.50;;;25.00;55.20;;;;;;5010731;28;20396;-68
2022/08/09 12:25:26;;;;;;;2.60;2.40;;;25.00;55.20;;;;;;5011444;28;20861;-67
2022/08/09 12:28:13;;;;;;;2.70;2.50;;;24.90;55.10;;;;;;5011441;28;20455;-68
2022/08/09 12:30:39;;;;;;;2.67;2.47;;;25.00;55.20;;;;;;5011079;28;20761;-68
2022/08/09 12:33:05;;;;;;;2.97;2.67;;;25.00;55.20;;;;;;5010532;28;20397;-68
2022/08/09 12:35:31;;;;;;;2.55;2.33;;;25.00;55.20;;;;;;4995617;28;20399;-68
2022/08/09 12:37:56;;;;;;;2.92;2.72;;;25.00;55.00;;;;;;4997283;28;20429;-68
2022/08/09 12:40:26;;;;;;;2.55;2.35;;;25.00;55.20;;;;;;4997590;28;20396;-68
2022/08/09 12:42:52;;;;;;;2.80;2.60;;;25.00;55.20;;;;;;4997123;28;20487;-67
2022/08/09 12:45:20;;;;;;;2.67;2.47;;;25.00;55.10;;;;;;5013910;28;20411;-67
2022/08/09 12:47:49;;;;;;;2.57;2.37;;;25.00;55.00;;;;;;5015057;28;20423;-68
2022/08/09 12:50:18;;;;;;;2.53;2.33;;;25.00;55.00;;;;;;5015139;28;20389;-68
2022/08/09 12:52:46;;;;;;;2.70;2.50;;;25.00;55.10;;;;;;4997653;28;20412;-68
2022/08/09 12:55:26;;;;;;;2.67;2.47;;;25.00;55.10;;;;;;5015026;28;20872;-68
2022/08/09 12:57:52;;;;;;;2.78;2.58;;;25.00;55.00;;;;;;5014741;28;20519;-68